Time;durP1;ratioP1;P1;durP2;ratioP2;P2;SDS_P1;SDS_P2;PMS_P1;PMS_P2;Temp;Humidity;BMP_temperature;BMP_pressure;BME280_temperature;BME280_humidity;BME280_pressure;Samples;Min_cycle;Max_cycle;Signal;HPM_P1;HPM_P2
2023/06/24 00:00:52;;;;;;;9.63;8.37;;;19.90;99.90;;;;;;5096755;28;20477;-77
2023/06/24 00:03:19;;;;;;;9.47;8.70;;;19.90;99.90;;;;;;5056668;28;20467;-78
2023/06/24 00:05:49;;;;;;;9.30;8.57;;;19.90;99.90;;;;;;5063668;28;20482;-77
2023/06/24 00:08:18;;;;;;;9.50;8.70;;;19.90;99.90;;;;;;5075448;28;20463;-78
2023/06/24 00:10:46;;;;;;;10.87;9.93;;;19.90;99.90;;;;;;5086333;28;20556;-78
2023/06/24 00:13:14;;;;;;;12.40;11.40;;;20.00;99.90;;;;;;5094463;28;20461;-78
2023/06/24 00:15:42;;;;;;;9.97;9.10;;;20.00;99.90;;;;;;5095046;28;20791;-78
2023/06/24 00:18:11;;;;;;;10.40;9.60;;;20.00;99.90;;;;;;5094162;28;20549;-78
2023/06/24 00:20:38;;;;;;;10.40;9.50;;;20.00;99.90;;;;;;5094314;28;20852;-77
2023/06/24 00:23:05;;;;;;;11.20;10.30;;;20.00;99.90;;;;;;5093408;28;20998;-78
2023/06/24 00:25:32;;;;;;;12.97;11.87;;;19.90;99.90;;;;;;5093990;28;20488;-78
2023/06/24 00:27:59;;;;;;;13.13;11.93;;;19.90;99.90;;;;;;5097179;28;20516;-77
2023/06/24 00:30:27;;;;;;;12.03;11.00;;;19.90;99.90;;;;;;5097480;28;20518;-78
2023/06/24 00:32:57;;;;;;;11.80;10.80;;;19.90;99.90;;;;;;5096262;28;20469;-78
2023/06/24 00:35:27;;;;;;;11.17;10.30;;;19.90;99.90;;;;;;5075040;28;20466;-78
2023/06/24 00:37:58;;;;;;;11.47;10.33;;;19.90;99.90;;;;;;5076457;28;20466;-79
2023/06/24 00:40:25;;;;;;;11.30;10.30;;;19.90;99.90;;;;;;5076728;28;20466;-78
2023/06/24 00:42:53;;;;;;;10.97;10.07;;;19.80;99.90;;;;;;5067573;28;20471;-78
2023/06/24 00:45:20;;;;;;;11.10;10.30;;;19.80;99.90;;;;;;5072542;28;20558;-78
2023/06/24 00:47:51;;;;;;;14.17;12.77;;;19.80;99.90;;;;;;5077088;28;20465;-79
2023/06/24 00:50:19;;;;;;;12.77;11.77;;;19.80;99.90;;;;;;5076654;28;20466;-77
2023/06/24 00:52:48;;;;;;;12.40;11.23;;;19.80;99.90;;;;;;5076458;28;20480;-77
2023/06/24 00:55:20;;;;;;;12.23;11.20;;;19.80;99.90;;;;;;5076106;28;20809;-78
2023/06/24 00:57:50;;;;;;;13.53;12.43;;;19.80;99.90;;;;;;5076422;28;20568;-78
2023/06/24 01:00:19;;;;;;;16.57;14.97;;;19.70;99.90;;;;;;5076151;28;20830;-78
2023/06/24 01:02:48;;;;;;;14.60;13.27;;;19.70;99.90;;;;;;5074729;28;20466;-78
2023/06/24 01:05:17;;;;;;;15.90;14.30;;;19.70;99.90;;;;;;5076027;28;20508;-78
2023/06/24 01:07:45;;;;;;;13.27;12.00;;;19.70;99.90;;;;;;5076353;28;20519;-77
2023/06/24 01:10:14;;;;;;;16.33;14.73;;;19.70;99.90;;;;;;5083430;28;20803;-79
2023/06/24 01:12:43;;;;;;;14.90;13.50;;;19.70;99.90;;;;;;5096646;28;20457;-77
2023/06/24 01:15:12;;;;;;;14.30;12.80;;;19.70;99.90;;;;;;5093914;28;20861;-78
2023/06/24 01:17:48;;;;;;;13.83;12.67;;;19.60;99.90;;;;;;5096936;28;20456;-78
2023/06/24 01:20:22;;;;;;;13.50;12.30;;;19.60;99.90;;;;;;5094985;28;20468;-80
2023/06/24 01:23:08;;;;;;;12.77;11.67;;;19.60;99.90;;;;;;5095981;28;20472;-77
2023/06/24 01:25:47;;;;;;;15.13;13.90;;;19.60;99.90;;;;;;5092980;28;20461;-78
2023/06/24 01:28:34;;;;;;;13.60;12.43;;;19.60;99.90;;;;;;5096116;28;20974;-78
2023/06/24 01:31:25;;;;;;;14.80;13.33;;;19.60;99.90;;;;;;5096083;28;20462;-78
2023/06/24 01:33:59;;;;;;;13.93;12.63;;;19.50;99.90;;;;;;5076190;28;20533;-79
2023/06/24 01:36:29;;;;;;;12.83;11.70;;;19.50;99.90;;;;;;5079307;28;20467;-78
2023/06/24 01:38:59;;;;;;;12.73;11.63;;;19.50;99.90;;;;;;5093918;28;20973;-78
2023/06/24 01:41:32;;;;;;;14.40;12.80;;;19.50;99.90;;;;;;5096072;28;20461;-79
2023/06/24 01:44:04;;;;;;;16.67;15.07;;;19.50;99.90;;;;;;5087843;28;20552;-78
2023/06/24 01:46:33;;;;;;;15.73;14.43;;;19.50;99.90;;;;;;5055703;28;20467;-78
2023/06/24 01:49:03;;;;;;;13.50;12.37;;;19.50;99.90;;;;;;5072693;28;20490;-77
2023/06/24 01:51:33;;;;;;;14.90;13.40;;;19.40;99.90;;;;;;5075843;28;20782;-77
2023/06/24 01:54:04;;;;;;;16.30;14.90;;;19.40;99.90;;;;;;5079082;28;20985;-77
2023/06/24 01:56:33;;;;;;;15.10;13.60;;;19.40;99.90;;;;;;5095952;28;20492;-77
2023/06/24 01:59:03;;;;;;;14.03;12.67;;;19.40;99.90;;;;;;5095036;28;20798;-77
2023/06/24 02:01:34;;;;;;;19.60;15.20;;;19.40;99.90;;;;;;5095375;28;20464;-77
2023/06/24 02:04:03;;;;;;;14.07;12.77;;;19.40;99.90;;;;;;5077063;28;20474;-78
2023/06/24 02:06:34;;;;;;;13.73;12.53;;;19.40;99.90;;;;;;5075226;28;20527;-78
2023/06/24 02:09:03;;;;;;;10.97;9.97;;;19.30;99.90;;;;;;5074214;28;20539;-78
2023/06/24 02:11:32;;;;;;;13.20;12.10;;;19.30;99.90;;;;;;5091201;28;21008;-77
2023/06/24 02:14:02;;;;;;;13.13;12.03;;;19.30;99.90;;;;;;5094371;28;20856;-77
2023/06/24 02:16:33;;;;;;;13.70;12.50;;;19.30;99.90;;;;;;5095057;28;20950;-77
2023/06/24 02:19:03;;;;;;;13.90;12.70;;;19.30;99.90;;;;;;5094789;28;20877;-78
2023/06/24 02:21:32;;;;;;;13.57;12.43;;;19.20;99.90;;;;;;5095062;28;21014;-78
2023/06/24 02:24:00;;;;;;;12.77;11.47;;;19.20;99.90;;;;;;5094437;28;20481;-79
2023/06/24 02:26:27;;;;;;;14.87;13.47;;;19.20;99.90;;;;;;5094740;28;20466;-77
2023/06/24 02:28:55;;;;;;;15.27;13.87;;;19.20;99.90;;;;;;5094299;28;20985;-78
2023/06/24 02:31:22;;;;;;;14.60;13.23;;;19.20;99.90;;;;;;5091897;28;20472;-77
2023/06/24 02:33:51;;;;;;;16.03;14.10;;;19.20;99.90;;;;;;5092637;28;20515;-77
2023/06/24 02:36:18;;;;;;;17.93;16.23;;;19.10;99.90;;;;;;5091229;28;20470;-78
2023/06/24 02:38:45;;;;;;;14.77;13.33;;;19.10;99.90;;;;;;5092509;28;20496;-77
2023/06/24 02:41:13;;;;;;;13.67;12.57;;;19.10;99.90;;;;;;5091805;28;20477;-78
2023/06/24 02:43:40;;;;;;;14.50;13.30;;;19.00;99.90;;;;;;5092002;28;20489;-77
2023/06/24 02:46:11;;;;;;;14.47;12.93;;;19.00;99.90;;;;;;5092198;28;20476;-77
2023/06/24 02:48:40;;;;;;;14.27;13.07;;;19.00;99.90;;;;;;5093389;28;20954;-78
2023/06/24 02:51:10;;;;;;;14.40;13.10;;;19.00;99.90;;;;;;5092158;28;20955;-78
2023/06/24 02:53:38;;;;;;;14.53;13.23;;;19.00;99.90;;;;;;5094792;28;20789;-79
2023/06/24 02:56:06;;;;;;;13.10;12.00;;;19.00;99.90;;;;;;5094114;28;20849;-79
2023/06/24 02:58:34;;;;;;;15.00;13.50;;;19.00;99.90;;;;;;5093949;28;20891;-77
2023/06/24 03:01:03;;;;;;;13.00;11.80;;;18.90;99.90;;;;;;5093904;28;20469;-77
2023/06/24 03:03:31;;;;;;;14.23;12.93;;;18.90;99.90;;;;;;5093646;28;20461;-78
2023/06/24 03:05:58;;;;;;;12.50;11.40;;;18.90;99.90;;;;;;5094209;28;20465;-77
2023/06/24 03:08:27;;;;;;;13.77;12.47;;;18.90;99.90;;;;;;5093792;28;20861;-77
2023/06/24 03:10:56;;;;;;;11.63;10.63;;;18.90;99.90;;;;;;5093951;28;20470;-78
2023/06/24 03:13:23;;;;;;;12.10;11.10;;;18.90;99.90;;;;;;5093368;28;20469;-78
2023/06/24 03:15:50;;;;;;;13.30;12.10;;;18.90;99.90;;;;;;5093701;28;20473;-77
2023/06/24 03:18:18;;;;;;;13.13;11.93;;;18.90;99.90;;;;;;5093604;28;20474;-78
2023/06/24 03:20:47;;;;;;;13.87;12.57;;;18.80;99.90;;;;;;5093921;28;20465;-77
2023/06/24 03:23:14;;;;;;;12.63;11.63;;;18.90;99.90;;;;;;5093214;28;21093;-77
2023/06/24 03:25:42;;;;;;;13.57;12.37;;;18.80;99.90;;;;;;5105515;28;20880;-79
2023/06/24 03:28:09;;;;;;;15.07;13.50;;;18.80;99.90;;;;;;5112854;28;20489;-78
2023/06/24 03:30:38;;;;;;;14.60;13.20;;;18.80;99.90;;;;;;5113587;28;20468;-77
2023/06/24 03:33:06;;;;;;;13.07;11.90;;;18.80;99.90;;;;;;5114564;27;20963;-77
2023/06/24 03:35:33;;;;;;;13.27;11.10;;;18.80;99.90;;;;;;5113681;28;20476;-77
2023/06/24 03:38:02;;;;;;;12.57;11.23;;;18.80;99.90;;;;;;5104607;28;20464;-77
2023/06/24 03:40:30;;;;;;;10.87;9.80;;;18.80;99.90;;;;;;5113225;28;20468;-78
2023/06/24 03:42:58;;;;;;;12.80;11.70;;;18.80;99.90;;;;;;5113882;28;20811;-78
2023/06/24 03:45:34;;;;;;;13.70;12.30;;;18.80;99.90;;;;;;5112965;28;20472;-78
2023/06/24 03:48:03;;;;;;;12.17;11.07;;;18.70;99.90;;;;;;5113887;28;20859;-77
2023/06/24 03:50:30;;;;;;;11.23;10.33;;;18.70;99.90;;;;;;5113174;28;20541;-78
2023/06/24 03:52:57;;;;;;;14.10;12.83;;;18.70;99.90;;;;;;5104517;28;20496;-78
2023/06/24 03:55:27;;;;;;;11.27;10.27;;;18.70;99.90;;;;;;5103062;28;20469;-78
2023/06/24 03:57:54;;;;;;;15.80;11.90;;;18.70;99.90;;;;;;5112739;28;20970;-77
2023/06/24 04:00:23;;;;;;;11.57;10.47;;;18.70;99.90;;;;;;5112830;28;20958;-77
2023/06/24 04:02:52;;;;;;;10.90;10.00;;;18.60;99.90;;;;;;5115305;28;20518;-77
2023/06/24 04:05:19;;;;;;;11.57;10.50;;;18.70;99.90;;;;;;5114813;28;20496;-78
2023/06/24 04:07:46;;;;;;;11.90;10.90;;;18.70;99.90;;;;;;5115224;28;20543;-77
2023/06/24 04:10:14;;;;;;;11.67;10.63;;;18.70;99.90;;;;;;5114836;28;20471;-77
2023/06/24 04:12:45;;;;;;;10.83;9.80;;;18.70;99.90;;;;;;5113563;28;20469;-76
2023/06/24 04:15:15;;;;;;;10.30;9.50;;;18.70;99.90;;;;;;5114296;28;20546;-77
2023/06/24 04:17:43;;;;;;;13.50;12.30;;;18.70;99.90;;;;;;5113693;28;20485;-76
2023/06/24 04:20:11;;;;;;;10.73;9.93;;;18.60;99.90;;;;;;5113872;28;21027;-77
2023/06/24 04:22:40;;;;;;;12.93;11.70;;;18.60;99.90;;;;;;5112770;28;20483;-77
2023/06/24 04:25:11;;;;;;;13.23;11.93;;;18.60;99.90;;;;;;5113596;28;20857;-78
2023/06/24 04:27:42;;;;;;;12.00;10.20;;;18.60;99.90;;;;;;5112784;28;20476;-77
2023/06/24 04:30:14;;;;;;;11.57;10.57;;;18.60;99.90;;;;;;5112729;28;20840;-77
2023/06/24 04:32:41;;;;;;;12.70;11.57;;;18.60;99.90;;;;;;5113294;28;20841;-77
2023/06/24 04:35:10;;;;;;;14.10;12.70;;;18.60;99.90;;;;;;5113498;28;20507;-77
2023/06/24 04:37:40;;;;;;;13.47;12.17;;;18.60;99.90;;;;;;5113137;28;20488;-77
2023/06/24 04:40:13;;;;;;;12.57;11.37;;;18.60;99.90;;;;;;5113461;28;20468;-77
2023/06/24 04:42:40;;;;;;;11.87;10.77;;;18.70;99.90;;;;;;5112440;28;20477;-76
2023/06/24 04:45:08;;;;;;;14.60;13.20;;;18.70;99.90;;;;;;5112958;28;20547;-77
2023/06/24 04:47:35;;;;;;;12.57;11.13;;;18.70;99.90;;;;;;5112563;28;20469;-77
2023/06/24 04:50:03;;;;;;;12.33;11.13;;;18.80;99.90;;;;;;5112662;28;20521;-77
2023/06/24 04:52:31;;;;;;;10.40;9.50;;;18.80;99.90;;;;;;5104134;28;20494;-76
2023/06/24 04:54:58;;;;;;;11.63;10.43;;;18.90;99.90;;;;;;5113007;28;20460;-77
2023/06/24 04:57:31;;;;;;;12.37;11.27;;;18.90;99.90;;;;;;5113078;28;20474;-78
2023/06/24 04:59:58;;;;;;;13.47;12.30;;;19.00;99.90;;;;;;5112378;28;20502;-77
2023/06/24 05:02:26;;;;;;;12.60;11.43;;;19.00;99.90;;;;;;5113175;28;20476;-78
2023/06/24 05:04:54;;;;;;;12.07;10.67;;;19.00;99.90;;;;;;5112415;28;20468;-77
2023/06/24 05:07:23;;;;;;;12.57;10.50;;;19.10;99.90;;;;;;5112849;28;20469;-77
2023/06/24 05:09:52;;;;;;;10.20;9.23;;;19.10;99.90;;;;;;5102915;28;20468;-77
2023/06/24 05:12:19;;;;;;;12.23;11.03;;;19.10;99.90;;;;;;5115393;28;20529;-77
2023/06/24 05:14:51;;;;;;;13.53;12.40;;;19.20;99.90;;;;;;5116412;28;20464;-78
2023/06/24 05:17:18;;;;;;;12.57;11.43;;;19.20;99.90;;;;;;5116805;27;20543;-77
2023/06/24 05:19:45;;;;;;;13.40;12.20;;;19.20;99.90;;;;;;5116859;27;20469;-77
2023/06/24 05:22:12;;;;;;;13.73;12.33;;;19.30;99.90;;;;;;5116559;28;20563;-77
2023/06/24 05:24:41;;;;;;;13.30;12.00;;;19.20;99.90;;;;;;5104689;28;20864;-77
2023/06/24 05:27:09;;;;;;;11.63;10.50;;;19.30;99.90;;;;;;5116258;28;20484;-77
2023/06/24 05:29:36;;;;;;;13.67;12.17;;;19.30;99.90;;;;;;5116531;28;20460;-77
2023/06/24 05:32:04;;;;;;;12.83;11.53;;;19.30;99.90;;;;;;5104175;28;20503;-77
2023/06/24 05:34:33;;;;;;;13.37;11.53;;;19.40;99.90;;;;;;5116302;28;20476;-77
2023/06/24 05:37:00;;;;;;;11.90;10.20;;;19.40;99.90;;;;;;5115468;28;20484;-77
2023/06/24 05:39:27;;;;;;;9.70;8.80;;;19.50;99.90;;;;;;5116065;28;20860;-77
2023/06/24 05:44:38;;;;;;;12.37;11.20;;;19.60;99.90;;;;;;5093371;28;20564;-78
2023/06/24 05:47:06;;;;;;;11.40;10.37;;;19.70;99.90;;;;;;5115960;28;20469;-78
2023/06/24 05:49:33;;;;;;;11.90;10.70;;;19.80;99.90;;;;;;5116225;28;20467;-79
2023/06/24 05:52:00;;;;;;;10.77;9.80;;;19.90;99.90;;;;;;5105541;28;20540;-78
2023/06/24 05:54:27;;;;;;;10.27;9.37;;;20.00;99.90;;;;;;5115923;28;20465;-78
2023/06/24 05:56:55;;;;;;;10.70;9.80;;;20.10;99.90;;;;;;5104831;28;20467;-78
2023/06/24 05:59:25;;;;;;;10.30;9.30;;;20.20;99.90;;;;;;5116083;27;20464;-77
2023/06/24 06:01:53;;;;;;;10.60;9.43;;;20.30;99.90;;;;;;5116163;28;20802;-78
2023/06/24 06:04:21;;;;;;;11.60;10.50;;;20.40;99.90;;;;;;5117030;28;20471;-78
2023/06/24 06:06:49;;;;;;;11.20;10.20;;;20.50;99.90;;;;;;5115687;28;20480;-77
2023/06/24 06:09:16;;;;;;;11.40;10.30;;;20.50;99.90;;;;;;5116107;28;20468;-77
2023/06/24 06:11:43;;;;;;;10.30;9.37;;;20.50;99.90;;;;;;5105932;28;20479;-78
2023/06/24 06:14:10;;;;;;;10.60;9.70;;;20.50;99.90;;;;;;5114342;28;20457;-77
2023/06/24 06:16:37;;;;;;;11.03;10.00;;;20.60;99.90;;;;;;5116133;28;20468;-77
2023/06/24 06:19:05;;;;;;;11.50;10.30;;;20.70;99.90;;;;;;5115671;28;20472;-78
2023/06/24 06:21:33;;;;;;;10.83;9.70;;;20.80;99.90;;;;;;5107064;28;20464;-77
2023/06/24 06:24:00;;;;;;;10.00;9.20;;;20.90;99.90;;;;;;5114241;28;20468;-78
2023/06/24 06:26:27;;;;;;;10.40;9.47;;;21.10;99.90;;;;;;5115638;28;20533;-77
2023/06/24 06:28:54;;;;;;;10.30;9.30;;;21.20;99.90;;;;;;5115613;28;20476;-79
2023/06/24 06:31:22;;;;;;;11.07;8.60;;;21.40;99.90;;;;;;5114568;28;20460;-78
2023/06/24 06:33:49;;;;;;;13.03;9.83;;;21.50;99.90;;;;;;5115987;27;20535;-78
2023/06/24 06:36:18;;;;;;;10.23;9.23;;;21.60;99.90;;;;;;5115920;28;20960;-77
2023/06/24 06:38:45;;;;;;;9.83;8.80;;;21.70;99.90;;;;;;5116215;28;20975;-77
2023/06/24 06:41:12;;;;;;;10.30;9.50;;;21.90;99.90;;;;;;5115240;28;20461;-78
2023/06/24 06:43:41;;;;;;;10.13;8.73;;;22.10;99.90;;;;;;5114850;28;20840;-77
2023/06/24 06:46:12;;;;;;;9.30;8.47;;;22.20;99.90;;;;;;5117252;27;20503;-78
2023/06/24 06:48:39;;;;;;;9.23;8.43;;;22.30;99.90;;;;;;5116637;28;20468;-77
2023/06/24 06:51:06;;;;;;;10.83;9.87;;;22.50;99.90;;;;;;5115924;28;20465;-77
2023/06/24 06:53:35;;;;;;;9.67;8.80;;;22.60;99.90;;;;;;5116592;28;20475;-77
2023/06/24 06:56:03;;;;;;;11.47;10.37;;;22.70;99.90;;;;;;5113807;28;20468;-79
2023/06/24 06:58:34;;;;;;;10.80;9.10;;;22.70;99.90;;;;;;5115458;28;20946;-78
2023/06/24 07:01:04;;;;;;;8.50;7.70;;;22.80;99.90;;;;;;5114867;28;20548;-78
2023/06/24 07:03:32;;;;;;;10.47;9.57;;;22.80;99.90;;;;;;5116567;27;20472;-78
2023/06/24 07:05:59;;;;;;;10.20;9.30;;;22.90;99.90;;;;;;5116091;27;20473;-78
2023/06/24 07:08:26;;;;;;;8.77;7.87;;;23.00;99.90;;;;;;5115961;28;20460;-79
2023/06/24 07:10:54;;;;;;;9.23;8.33;;;23.00;99.90;;;;;;5115248;28;21027;-79
2023/06/24 07:13:21;;;;;;;9.50;8.70;;;23.20;99.90;;;;;;5115067;28;20519;-78
2023/06/24 07:15:48;;;;;;;8.63;7.83;;;23.30;99.90;;;;;;5114996;28;20468;-77
2023/06/24 07:18:15;;;;;;;9.03;8.23;;;23.30;99.90;;;;;;5114643;28;20509;-77
2023/06/24 07:20:43;;;;;;;9.13;8.43;;;23.30;99.90;;;;;;5114483;27;20464;-79
2023/06/24 07:23:10;;;;;;;7.73;7.13;;;23.30;99.90;;;;;;5114246;28;20563;-79
2023/06/24 07:25:39;;;;;;;8.47;7.80;;;23.40;99.90;;;;;;5114868;28;20970;-79
2023/06/24 07:28:10;;;;;;;7.73;7.03;;;23.40;99.90;;;;;;5112613;27;20472;-78
2023/06/24 07:30:37;;;;;;;8.13;7.47;;;23.60;99.90;;;;;;5114976;28;20471;-78
2023/06/24 07:33:05;;;;;;;8.73;7.90;;;23.60;99.90;;;;;;5114485;27;20954;-78
2023/06/24 07:35:32;;;;;;;8.00;7.33;;;23.70;99.90;;;;;;5114555;28;20471;-79
2023/06/24 07:38:05;;;;;;;8.20;7.50;;;23.80;99.90;;;;;;5113305;28;20547;-79
2023/06/24 07:40:33;;;;;;;8.43;7.70;;;23.90;99.90;;;;;;5114149;28;20479;-78
2023/06/24 07:43:06;;;;;;;7.40;6.70;;;24.00;99.90;;;;;;5113243;28;21051;-77
2023/06/24 07:45:33;;;;;;;7.47;6.73;;;24.20;99.90;;;;;;5114255;28;20465;-77
2023/06/24 07:48:00;;;;;;;8.70;7.80;;;24.20;99.90;;;;;;5113564;28;20541;-77
2023/06/24 07:50:27;;;;;;;8.57;7.73;;;24.20;99.90;;;;;;5114186;28;20522;-77
2023/06/24 07:52:55;;;;;;;6.73;6.10;;;24.30;99.90;;;;;;5114592;28;20793;-78
2023/06/24 07:55:21;;;;;;;8.90;7.00;;;24.50;99.90;;;;;;5114163;28;20460;-77
2023/06/24 07:57:48;;;;;;;9.20;8.10;;;24.50;99.90;;;;;;5114229;28;20525;-77
2023/06/24 08:00:18;;;;;;;8.30;7.70;;;24.60;99.90;;;;;;5114076;28;20556;-78
2023/06/24 08:02:46;;;;;;;8.80;8.00;;;24.70;99.90;;;;;;5113935;28;20468;-78
2023/06/24 08:05:13;;;;;;;9.70;8.83;;;24.70;99.90;;;;;;5113724;28;20537;-78
2023/06/24 08:07:45;;;;;;;8.40;7.60;;;24.70;99.90;;;;;;5114173;28;20460;-78
2023/06/24 08:10:12;;;;;;;6.83;6.33;;;24.60;99.90;;;;;;5113790;28;20547;-78
2023/06/24 08:12:43;;;;;;;7.93;7.23;;;24.60;99.90;;;;;;5114122;28;20473;-77
2023/06/24 08:15:10;;;;;;;10.20;9.20;;;24.60;99.90;;;;;;5112596;28;20980;-77
2023/06/24 08:17:39;;;;;;;7.63;7.10;;;24.60;99.90;;;;;;5113781;28;20551;-79
2023/06/24 08:20:07;;;;;;;8.60;7.80;;;24.60;99.90;;;;;;5113545;28;20461;-79
2023/06/24 08:22:34;;;;;;;8.60;7.33;;;24.70;99.90;;;;;;5113922;28;20560;-78
2023/06/24 08:25:01;;;;;;;9.13;7.40;;;24.80;99.90;;;;;;5113457;28;20465;-78
2023/06/24 08:27:28;;;;;;;7.27;6.60;;;24.80;99.90;;;;;;5113430;28;20464;-77
2023/06/24 08:29:55;;;;;;;6.70;6.10;;;25.00;99.90;;;;;;5113491;28;20863;-78
2023/06/24 08:32:24;;;;;;;7.23;6.63;;;25.00;99.90;;;;;;5112952;28;21300;-78
2023/06/24 08:34:52;;;;;;;8.37;7.67;;;25.10;99.90;;;;;;5113937;28;20541;-78
2023/06/24 08:37:21;;;;;;;6.30;5.80;;;25.20;99.90;;;;;;5112545;28;20854;-78
2023/06/24 08:39:51;;;;;;;8.67;6.53;;;25.20;99.90;;;;;;5114091;28;20460;-78
2023/06/24 08:42:18;;;;;;;6.23;5.70;;;25.30;99.90;;;;;;5101628;28;20992;-78
2023/06/24 08:44:48;;;;;;;7.40;6.27;;;25.40;99.90;;;;;;5113252;28;20539;-77
2023/06/24 08:47:16;;;;;;;6.00;5.60;;;25.50;99.90;;;;;;5116136;28;20460;-78
2023/06/24 08:49:50;;;;;;;6.27;5.70;;;25.50;99.90;;;;;;5118511;28;20532;-79
2023/06/24 08:52:18;;;;;;;6.63;5.77;;;25.50;99.90;;;;;;5117383;27;20468;-78
2023/06/24 08:54:49;;;;;;;5.73;5.33;;;25.40;99.90;;;;;;5117445;28;20468;-78
2023/06/24 08:57:18;;;;;;;6.60;5.90;;;25.40;99.90;;;;;;5116929;28;20846;-78
2023/06/24 08:59:45;;;;;;;6.27;5.70;;;25.40;99.90;;;;;;5117093;27;20460;-78
2023/06/24 09:02:13;;;;;;;6.33;5.73;;;25.40;99.90;;;;;;5115884;28;20460;-77
2023/06/24 09:04:41;;;;;;;6.80;6.30;;;25.30;99.90;;;;;;5117273;28;20517;-79
2023/06/24 09:07:08;;;;;;;7.03;6.43;;;25.30;99.90;;;;;;5117377;28;20468;-78
2023/06/24 09:09:44;;;;;;;6.63;6.03;;;25.30;99.90;;;;;;5116142;28;20532;-78
2023/06/24 09:12:13;;;;;;;5.80;5.33;;;25.30;99.90;;;;;;5117138;28;20472;-77
2023/06/24 09:14:40;;;;;;;6.80;6.10;;;25.30;99.90;;;;;;5116304;27;20456;-77
2023/06/24 09:17:09;;;;;;;7.10;6.50;;;25.30;99.90;;;;;;5116966;28;20480;-78
2023/06/24 09:19:37;;;;;;;8.33;6.67;;;25.20;99.90;;;;;;5116681;27;20467;-78
2023/06/24 09:22:05;;;;;;;7.33;6.73;;;25.10;99.90;;;;;;5116824;28;20472;-79
2023/06/24 09:24:32;;;;;;;7.03;6.20;;;25.10;99.90;;;;;;5115986;27;20476;-77
2023/06/24 09:27:01;;;;;;;6.07;5.60;;;25.00;99.90;;;;;;5116904;28;20472;-78
2023/06/24 09:29:29;;;;;;;5.80;5.40;;;25.10;99.90;;;;;;5116071;27;20492;-78
2023/06/24 09:31:58;;;;;;;6.00;5.60;;;25.10;99.90;;;;;;5117138;27;20491;-77
2023/06/24 09:34:25;;;;;;;5.60;5.20;;;25.00;99.90;;;;;;5116278;28;20981;-77
2023/06/24 09:36:56;;;;;;;6.83;6.23;;;25.00;99.90;;;;;;5116490;27;20472;-78
2023/06/24 09:39:28;;;;;;;6.40;5.80;;;25.00;99.90;;;;;;5115758;28;20469;-78
2023/06/24 09:41:55;;;;;;;7.60;7.00;;;24.90;99.90;;;;;;5117100;28;20521;-79
2023/06/24 09:44:24;;;;;;;6.50;5.97;;;24.90;99.90;;;;;;5115929;28;20985;-78
2023/06/24 09:46:52;;;;;;;6.43;5.83;;;24.90;99.90;;;;;;5115640;27;21018;-76
2023/06/24 09:49:19;;;;;;;6.23;5.73;;;24.80;99.90;;;;;;5115724;28;20494;-77
2023/06/24 09:51:49;;;;;;;7.30;6.07;;;24.90;99.90;;;;;;5116002;27;20980;-77
2023/06/24 09:54:17;;;;;;;5.63;5.13;;;24.80;99.90;;;;;;5116520;28;20548;-78
2023/06/24 09:56:46;;;;;;;5.50;5.00;;;24.80;99.90;;;;;;5115524;28;20472;-77
2023/06/24 09:59:14;;;;;;;5.20;4.70;;;24.80;99.90;;;;;;5115265;28;20860;-78
2023/06/24 10:01:45;;;;;;;4.87;4.30;;;24.80;99.30;;;;;;5115742;27;21115;-78
2023/06/24 10:04:17;;;;;;;5.10;4.70;;;24.70;99.50;;;;;;5116466;28;20472;-79
2023/06/24 10:06:47;;;;;;;6.67;5.87;;;24.70;99.90;;;;;;5115953;28;20479;-78
2023/06/24 10:09:16;;;;;;;4.77;4.43;;;24.70;99.90;;;;;;5115441;28;20461;-79
2023/06/24 10:11:43;;;;;;;5.90;5.50;;;24.70;99.90;;;;;;5104399;28;20494;-78
2023/06/24 10:14:11;;;;;;;6.13;5.10;;;24.70;99.90;;;;;;5115798;28;20475;-79
2023/06/24 10:16:38;;;;;;;5.07;4.67;;;24.60;99.90;;;;;;5103809;28;20882;-79
2023/06/24 10:19:06;;;;;;;4.50;4.20;;;24.70;99.90;;;;;;5115881;28;20946;-79
2023/06/24 10:21:48;;;;;;;7.43;6.00;;;24.70;99.90;;;;;;5115009;28;20965;-75
2023/06/24 10:24:30;;;;;;;5.90;5.40;;;24.70;99.90;;;;;;5115795;28;20472;-77
2023/06/24 10:27:02;;;;;;;5.33;4.90;;;24.70;99.90;;;;;;5115520;28;20472;-77
2023/06/24 10:29:34;;;;;;;5.80;5.27;;;24.70;99.90;;;;;;5114931;27;20464;-78
2023/06/24 10:32:05;;;;;;;6.63;5.30;;;24.70;99.90;;;;;;5114504;28;20792;-77
2023/06/24 10:34:39;;;;;;;8.23;5.53;;;24.70;99.90;;;;;;5116317;27;20460;-78
2023/06/24 10:37:11;;;;;;;5.83;4.90;;;24.70;99.90;;;;;;5114846;28;20464;-77
2023/06/24 10:39:49;;;;;;;6.00;5.50;;;24.70;99.90;;;;;;5114362;28;20521;-77
2023/06/24 10:42:34;;;;;;;5.17;4.77;;;24.70;99.90;;;;;;5114457;27;20525;-80
2023/06/24 10:45:03;;;;;;;5.07;4.67;;;24.80;99.90;;;;;;5113831;28;20492;-78
2023/06/24 10:47:31;;;;;;;6.90;5.50;;;24.80;99.90;;;;;;5114544;28;20517;-78
2023/06/24 10:49:59;;;;;;;4.63;4.13;;;24.80;99.90;;;;;;5114553;28;20586;-78
2023/06/24 10:52:27;;;;;;;5.27;4.87;;;24.80;99.90;;;;;;5115315;28;21279;-79
2023/06/24 10:54:54;;;;;;;5.60;5.20;;;24.80;99.90;;;;;;5115539;27;20566;-78
2023/06/24 10:57:24;;;;;;;6.33;4.80;;;24.80;99.90;;;;;;5114834;28;20471;-78
2023/06/24 10:59:52;;;;;;;5.80;5.30;;;24.90;99.90;;;;;;5114448;28;20468;-79
2023/06/24 11:02:20;;;;;;;4.63;4.33;;;24.90;99.90;;;;;;5114637;28;20505;-78
2023/06/24 11:04:48;;;;;;;9.17;4.90;;;25.00;99.80;;;;;;5114619;27;20529;-80
2023/06/24 11:07:19;;;;;;;4.97;4.60;;;25.00;99.90;;;;;;5113249;27;20500;-79
2023/06/24 11:09:52;;;;;;;5.30;5.00;;;25.00;99.90;;;;;;5114262;28;20479;-79
2023/06/24 11:12:20;;;;;;;5.00;4.60;;;25.00;99.90;;;;;;5114558;28;20470;-77
2023/06/24 11:14:47;;;;;;;5.10;4.70;;;24.90;99.90;;;;;;5114033;27;20465;-80
2023/06/24 11:17:14;;;;;;;8.13;5.60;;;25.00;99.90;;;;;;5100719;28;20480;-77
2023/06/24 11:19:43;;;;;;;5.27;4.43;;;25.00;99.80;;;;;;5114108;28;20544;-79
2023/06/24 11:22:15;;;;;;;5.40;5.00;;;25.00;99.90;;;;;;5114339;28;20518;-78
2023/06/24 11:24:43;;;;;;;5.80;5.30;;;25.10;99.90;;;;;;5113991;28;20495;-79
2023/06/24 11:27:13;;;;;;;6.00;5.40;;;25.10;99.90;;;;;;5114168;28;20465;-79
2023/06/24 11:29:40;;;;;;;4.73;4.33;;;25.10;99.90;;;;;;5086384;28;20500;-79
2023/06/24 11:32:09;;;;;;;7.70;5.33;;;25.20;99.90;;;;;;5084641;28;20498;-77
2023/06/24 11:34:37;;;;;;;7.27;4.90;;;25.20;99.90;;;;;;5083144;28;20469;-77
2023/06/24 11:37:12;;;;;;;7.00;5.07;;;25.20;99.90;;;;;;5093526;28;20473;-78
2023/06/24 11:39:40;;;;;;;8.13;5.57;;;25.20;99.40;;;;;;5092403;28;20496;-77
2023/06/24 11:42:12;;;;;;;5.70;5.20;;;25.30;99.20;;;;;;5074240;28;20971;-78
2023/06/24 11:44:45;;;;;;;5.80;5.30;;;25.30;99.20;;;;;;5064376;28;20500;-78
2023/06/24 11:47:13;;;;;;;5.17;4.77;;;25.30;99.50;;;;;;5088514;28;20839;-77
2023/06/24 11:49:53;;;;;;;7.00;5.67;;;25.30;99.00;;;;;;5093385;28;20458;-77
2023/06/24 11:52:20;;;;;;;8.50;5.60;;;25.30;98.60;;;;;;5093885;28;20461;-78
2023/06/24 11:54:52;;;;;;;5.00;4.70;;;25.30;98.00;;;;;;5093225;28;20461;-77
2023/06/24 11:57:20;;;;;;;5.77;5.27;;;25.30;98.10;;;;;;5082822;28;20473;-78
2023/06/24 11:59:53;;;;;;;5.60;5.10;;;25.30;98.10;;;;;;5092897;28;20978;-78
2023/06/24 12:02:20;;;;;;;5.40;4.90;;;25.40;98.40;;;;;;5093816;28;20480;-78
2023/06/24 12:04:48;;;;;;;5.70;5.30;;;25.40;98.30;;;;;;5093011;28;20473;-78
2023/06/24 12:07:15;;;;;;;6.23;5.73;;;25.40;98.00;;;;;;5093860;28;20489;-78
2023/06/24 12:09:43;;;;;;;6.30;5.80;;;25.40;97.40;;;;;;5093185;28;20536;-78
2023/06/24 12:12:11;;;;;;;5.27;4.93;;;25.40;97.80;;;;;;5093591;28;20553;-77
2023/06/24 12:14:40;;;;;;;6.50;5.90;;;25.40;97.80;;;;;;5092791;28;20797;-78
2023/06/24 12:17:07;;;;;;;5.17;4.77;;;25.50;98.10;;;;;;5093339;28;20469;-78
2023/06/24 12:19:34;;;;;;;4.67;4.27;;;25.50;97.90;;;;;;5092857;28;20461;-78
2023/06/24 12:22:01;;;;;;;4.87;4.50;;;25.60;98.00;;;;;;5095775;28;20476;-78
2023/06/24 12:24:30;;;;;;;4.10;3.80;;;25.60;98.00;;;;;;5097868;28;20469;-79
2023/06/24 12:26:57;;;;;;;4.90;4.50;;;25.60;97.80;;;;;;5097553;28;20556;-78
2023/06/24 12:29:24;;;;;;;5.53;5.03;;;25.60;97.10;;;;;;5098053;28;20473;-78
2023/06/24 12:31:52;;;;;;;5.30;4.90;;;25.60;97.50;;;;;;5083525;28;20603;-77
2023/06/24 12:34:20;;;;;;;4.63;4.30;;;25.60;97.80;;;;;;5082818;28;20531;-78
2023/06/24 12:36:47;;;;;;;5.43;5.03;;;25.60;97.90;;;;;;5080255;28;20986;-77
2023/06/24 12:39:15;;;;;;;5.67;5.17;;;25.70;97.90;;;;;;5079264;28;20489;-77
2023/06/24 12:41:42;;;;;;;5.97;5.57;;;25.70;97.60;;;;;;5083933;28;20462;-78
2023/06/24 12:44:09;;;;;;;5.10;4.60;;;25.70;97.50;;;;;;5077590;28;20499;-78
2023/06/24 12:46:36;;;;;;;5.10;4.70;;;25.70;97.40;;;;;;5095207;28;20476;-77
2023/06/24 12:49:04;;;;;;;5.30;4.90;;;25.80;97.10;;;;;;5097754;28;20927;-78